Time;durP1;ratioP1;P1;durP2;ratioP2;P2;SDS_P1;SDS_P2;PMS_P1;PMS_P2;Temp;Humidity;BMP_temperature;BMP_pressure;BME280_temperature;BME280_humidity;BME280_pressure;Samples;Min_cycle;Max_cycle;Signal;HPM_P1;HPM_P2
2022/02/15 00:01:14;;;;;;;;;4.50;3.00;;;;;9.79;58.30;100640.97;5042282;28;45487;-48
2022/02/15 00:03:40;;;;;;;;;3.75;3.75;;;;;9.80;58.53;100642.72;5021338;28;47050;-48
2022/02/15 00:06:05;;;;;;;;;7.00;5.75;;;;;9.79;58.48;100655.88;5038037;28;45346;-50
2022/02/15 00:08:30;;;;;;;;;5.75;3.00;;;;;9.81;58.36;100659.31;5042784;28;45253;-47
2022/02/15 00:10:56;;;;;;;;;4.00;4.00;;;;;9.82;58.33;100655.81;5040956;28;45491;-47
2022/02/15 00:13:21;;;;;;;;;4.00;3.00;;;;;9.78;58.40;100657.59;5042746;28;45260;-48
2022/02/15 00:15:46;;;;;;;;;6.00;4.50;;;;;9.80;58.55;100660.19;5042182;28;45327;-49
2022/02/15 00:18:12;;;;;;;;;4.00;3.75;;;;;9.78;58.57;100654.97;5042551;28;45456;-46
2022/02/15 00:20:38;;;;;;;;;6.00;5.00;;;;;9.79;58.31;100656.72;5042315;28;45385;-49
2022/02/15 00:23:04;;;;;;;;;3.25;2.75;;;;;9.78;58.58;100662.00;5041704;28;45307;-48
2022/02/15 00:25:30;;;;;;;;;4.00;3.50;;;;;9.79;58.36;100658.50;5041849;28;45369;-49
2022/02/15 00:27:55;;;;;;;;;3.75;3.25;;;;;9.80;58.18;100666.34;5042336;28;45402;-50
2022/02/15 00:30:21;;;;;;;;;6.50;3.25;;;;;9.78;58.69;100654.97;5041853;28;45320;-46
2022/02/15 00:32:46;;;;;;;;;2.25;2.25;;;;;9.76;58.64;100662.88;5042019;28;45219;-49
2022/02/15 00:35:12;;;;;;;;;3.00;3.00;;;;;9.76;58.51;100668.13;5041932;28;45223;-47
2022/02/15 00:37:38;;;;;;;;;5.00;3.00;;;;;9.76;58.61;100675.16;5042240;28;45446;-50
2022/02/15 00:40:05;;;;;;;;;3.50;2.50;;;;;9.74;58.62;100666.41;5040439;28;46253;-50
2022/02/15 00:42:30;;;;;;;;;5.00;1.50;;;;;9.77;58.63;100682.09;5040657;28;47433;-47
2022/02/15 00:44:55;;;;;;;;;3.25;3.00;;;;;9.74;58.51;100683.00;5041477;28;45435;-48
2022/02/15 00:47:21;;;;;;;;;2.75;1.75;;;;;9.73;58.41;100678.66;5041929;28;45328;-50
2022/02/15 00:49:46;;;;;;;;;6.00;3.75;;;;;9.72;58.57;100676.94;5041698;28;45430;-48
2022/02/15 00:52:12;;;;;;;;;2.00;2.00;;;;;9.71;58.53;100688.31;5041804;28;45940;-48
2022/02/15 00:54:37;;;;;;;;;2.50;2.50;;;;;9.74;58.60;100687.41;5041549;28;45319;-47
2022/02/15 00:57:03;;;;;;;;;2.75;2.75;;;;;9.71;58.43;100688.31;5042109;28;45299;-46
2022/02/15 00:59:28;;;;;;;;;3.00;3.00;;;;;9.69;58.65;100690.06;5041258;28;45271;-47
2022/02/15 01:01:53;;;;;;;;;4.50;2.00;;;;;9.69;58.57;100694.47;5041812;28;45260;-47
2022/02/15 01:04:18;;;;;;;;;3.00;3.00;;;;;9.68;58.48;100690.97;5041592;28;45391;-46
2022/02/15 01:06:44;;;;;;;;;3.25;2.00;;;;;9.66;58.49;100697.09;5041860;28;45450;-47
2022/02/15 01:09:10;;;;;;;;;3.75;3.75;;;;;9.67;58.46;100707.63;5041306;28;45441;-49
2022/02/15 01:11:36;;;;;;;;;2.00;2.00;;;;;9.65;58.44;100703.25;5040113;28;46147;-46
2022/02/15 01:14:01;;;;;;;;;4.00;3.00;;;;;9.66;58.51;100707.59;5041473;28;45277;-47
2022/02/15 01:16:27;;;;;;;;;4.50;3.00;;;;;9.63;58.47;100705.03;5040374;28;45380;-46
2022/02/15 01:18:52;;;;;;;;;2.50;2.00;;;;;9.63;58.49;100710.28;5041455;28;45240;-45
2022/02/15 01:21:18;;;;;;;;;3.00;2.50;;;;;9.65;58.39;100721.59;5039967;28;47307;-46
2022/02/15 01:23:43;;;;;;;;;5.50;4.00;;;;;9.63;58.69;100721.63;5041358;28;45235;-48
2022/02/15 01:26:09;;;;;;;;;6.75;4.00;;;;;9.64;58.49;100727.75;5023437;28;45489;-49
2022/02/15 01:28:35;;;;;;;;;4.00;2.25;;;;;9.64;58.68;100722.50;5041387;28;45173;-46
2022/02/15 01:31:04;;;;;;;;;4.50;3.75;;;;;9.66;58.38;100728.59;5040873;28;46177;-49
2022/02/15 01:33:30;;;;;;;;;4.50;4.00;;;;;9.67;58.41;100736.47;5041095;28;45289;-47
2022/02/15 01:35:56;;;;;;;;;3.75;3.25;;;;;9.65;58.50;100726.84;5040305;28;45228;-47
2022/02/15 01:38:21;;;;;;;;;4.75;4.75;;;;;9.62;58.71;100729.53;5041093;28;45243;-47
2022/02/15 01:40:46;;;;;;;;;5.00;4.00;;;;;9.64;58.55;100733.88;5039506;28;47122;-47
2022/02/15 01:43:12;;;;;;;;;3.25;3.25;;;;;9.65;58.73;100732.09;5040771;28;45240;-47
2022/02/15 01:45:37;;;;;;;;;4.50;4.50;;;;;9.61;58.47;100733.91;5039770;28;45220;-44
2022/02/15 01:48:03;;;;;;;;;3.50;3.00;;;;;9.65;58.50;100746.09;5040766;28;45485;-45
2022/02/15 01:50:28;;;;;;;;;5.25;4.25;;;;;9.66;58.63;100739.97;5040874;28;46010;-48
2022/02/15 01:52:54;;;;;;;;;1.50;0.75;;;;;9.67;58.80;100746.97;5040780;28;45347;-45
2022/02/15 01:55:19;;;;;;;;;5.50;2.25;;;;;9.67;58.72;100751.34;5039758;28;45194;-50
2022/02/15 01:57:45;;;;;;;;;6.25;4.00;;;;;9.67;58.71;100749.59;5040777;28;45544;-47
2022/02/15 02:00:14;;;;;;;;;6.75;3.25;;;;;9.65;58.50;100753.97;5039290;28;47239;-47
2022/02/15 02:02:40;;;;;;;;;4.50;3.00;;;;;9.64;58.76;100762.72;5040670;28;45376;-48
2022/02/15 02:07:51;;;;;;;;;2.00;2.00;;;;;9.60;58.83;100772.38;5040532;28;45440;-47
2022/02/15 02:10:16;;;;;;;;;3.00;3.00;;;;;9.62;58.79;100769.72;5040163;28;45334;-45
2022/02/15 02:12:42;;;;;;;;;2.75;2.50;;;;;9.63;58.54;100775.88;5040434;28;45220;-47
2022/02/15 02:15:14;;;;;;;;;3.75;3.00;;;;;9.60;58.41;100771.53;5040598;28;45369;-50
2022/02/15 02:17:39;;;;;;;;;4.00;2.25;;;;;9.61;58.79;100775.91;5040497;28;45230;-48
2022/02/15 02:20:06;;;;;;;;;1.50;1.50;;;;;9.62;58.41;100782.84;5040532;28;45339;-46
2022/02/15 02:22:31;;;;;;;;;2.75;2.00;;;;;9.61;58.66;100773.28;5040357;28;45425;-48
2022/02/15 02:24:58;;;;;;;;;2.50;2.50;;;;;9.60;58.66;100772.38;5040360;28;45229;-47
2022/02/15 02:27:28;;;;;;;;;2.75;2.25;;;;;9.62;58.55;100774.97;5040137;28;45173;-46
2022/02/15 02:29:55;;;;;;;;;3.50;1.75;;;;;9.61;58.80;100775.91;5040017;28;46906;-48
2022/02/15 02:32:22;;;;;;;;;3.75;2.00;;;;;9.60;58.57;100771.53;5038850;28;45456;-45
2022/02/15 02:34:49;;;;;;;;;4.00;2.50;;;;;9.60;58.54;100774.16;5039029;27;45276;-46
2022/02/15 02:37:14;;;;;;;;;3.50;2.50;;;;;9.62;58.52;100782.84;5040319;28;45231;-48
2022/02/15 02:39:45;;;;;;;;;2.25;2.25;;;;;9.60;58.49;100787.25;5039915;28;46058;-46
2022/02/15 02:42:11;;;;;;;;;2.75;2.00;;;;;9.58;58.79;100789.91;5040084;28;45324;-48
2022/02/15 02:44:37;;;;;;;;;2.75;2.50;;;;;9.57;58.67;100795.16;5039901;28;45343;-49
2022/02/15 02:47:04;;;;;;;;;1.00;1.00;;;;;9.56;58.65;100796.91;5039474;28;45236;-46
2022/02/15 02:49:29;;;;;;;;;2.75;2.00;;;;;9.55;58.55;100789.91;5039988;28;46521;-47
2022/02/15 02:51:54;;;;;;;;;2.50;2.00;;;;;9.56;58.69;100801.31;5039923;28;45245;-46
2022/02/15 02:54:20;;;;;;;;;2.00;2.00;;;;;9.57;58.58;100803.03;5040276;28;45129;-46
2022/02/15 02:56:45;;;;;;;;;2.75;1.25;;;;;9.54;58.54;100809.16;5040133;28;45283;-49
2022/02/15 02:59:10;;;;;;;;;3.00;3.00;;;;;9.54;58.63;100808.31;5038636;28;47045;-45
2022/02/15 03:01:36;;;;;;;;;1.75;1.00;;;;;9.55;58.42;100805.66;5039537;28;45323;-48
2022/02/15 03:04:01;;;;;;;;;6.75;3.00;;;;;9.54;58.54;100818.81;5040023;28;45590;-49
2022/02/15 03:06:27;;;;;;;;;2.00;2.00;;;;;9.53;58.78;100811.81;5039643;28;45398;-47
2022/02/15 03:08:53;;;;;;;;;5.00;3.00;;;;;9.54;58.57;100814.41;5039842;28;45410;-46
2022/02/15 03:11:18;;;;;;;;;2.50;2.00;;;;;9.54;58.69;100818.81;5039477;28;45311;-45
2022/02/15 03:13:44;;;;;;;;;2.75;1.00;;;;;9.55;58.66;100825.78;5039992;28;45327;-45
2022/02/15 03:16:09;;;;;;;;;2.25;2.00;;;;;9.53;58.61;100840.66;5038188;28;45427;-45
2022/02/15 03:18:35;;;;;;;;;6.00;2.00;;;;;9.53;58.58;100833.66;5039859;28;45346;-45
2022/02/15 03:21:01;;;;;;;;;2.25;2.25;;;;;9.54;58.35;100845.03;5039710;28;45402;-48
2022/02/15 03:23:26;;;;;;;;;2.25;2.00;;;;;9.53;58.54;100848.53;5039837;28;45207;-47
2022/02/15 03:25:51;;;;;;;;;4.50;1.75;;;;;9.50;58.61;100849.44;5039235;28;45162;-50
2022/02/15 03:28:17;;;;;;;;;2.00;2.00;;;;;9.49;58.58;100854.69;5039667;28;45982;-47
2022/02/15 03:30:42;;;;;;;;;3.00;2.00;;;;;9.47;58.44;100859.97;5039230;28;45145;-47
2022/02/15 03:33:07;;;;;;;;;2.00;2.00;;;;;9.47;58.40;100869.56;5039886;28;45242;-48
2022/02/15 03:35:33;;;;;;;;;3.50;2.50;;;;;9.44;58.55;100871.31;5039604;28;45583;-50
2022/02/15 03:37:58;;;;;;;;;2.00;2.00;;;;;9.45;58.32;100877.47;5038205;28;45973;-48
2022/02/15 03:43:04;;;;;;;;;1.00;1.00;;;;;9.40;58.61;100882.72;5039140;28;45409;-47
2022/02/15 03:43:10;;;;;;;;;2.00;2.00;;;;;9.38;58.40;100889.75;5039286;28;45510;-49
2022/02/15 03:45:36;;;;;;;;;2.50;1.00;;;;;9.37;58.60;100890.63;5038945;28;45330;-47
2022/02/15 03:48:02;;;;;;;;;2.00;1.25;;;;;9.37;58.33;100895.00;5037631;28;47076;-45
2022/02/15 03:50:27;;;;;;;;;1.75;1.75;;;;;9.35;58.53;100913.38;5039407;28;45478;-46
2022/02/15 03:52:53;;;;;;;;;3.00;2.00;;;;;9.33;58.60;100912.50;5039336;28;45396;-46
2022/02/15 03:55:19;;;;;;;;;2.00;1.00;;;;;9.29;58.25;100909.94;5039170;28;45309;-45
2022/02/15 03:57:44;;;;;;;;;0.50;0.50;;;;;9.27;58.51;100920.44;5039150;28;45387;-49
2022/02/15 04:00:10;;;;;;;;;4.00;2.00;;;;;9.25;58.50;100912.53;5041990;28;45309;-46
2022/02/15 04:02:36;;;;;;;;;1.00;1.00;;;;;9.25;58.36;100914.31;5042813;28;45288;-47
2022/02/15 04:05:01;;;;;;;;;1.00;1.00;;;;;9.23;58.68;100924.81;5042977;28;45462;-49
2022/02/15 04:07:26;;;;;;;;;2.25;1.00;;;;;9.22;58.45;100922.19;5042518;28;46154;-48
2022/02/15 04:09:52;;;;;;;;;2.00;1.50;;;;;9.23;58.64;100929.16;5042410;28;45233;-47
2022/02/15 04:12:17;;;;;;;;;1.75;1.50;;;;;9.22;58.62;100933.56;5042564;28;45457;-48
2022/02/15 04:14:42;;;;;;;;;1.00;1.00;;;;;9.21;58.51;100926.56;5042405;28;45407;-45
2022/02/15 04:17:08;;;;;;;;;4.25;2.50;;;;;9.21;58.30;100934.44;5042261;28;46388;-46
2022/02/15 04:19:33;;;;;;;;;4.50;2.50;;;;;9.22;58.46;100953.66;5041020;28;45266;-47
2022/02/15 04:21:58;;;;;;;;;2.00;2.00;;;;;9.22;58.46;100961.50;5042416;28;45220;-48
2022/02/15 04:24:24;;;;;;;;;1.00;1.00;;;;;9.22;58.43;100959.78;5042178;28;45239;-46
2022/02/15 04:26:49;;;;;;;;;2.00;1.00;;;;;9.21;58.20;100965.91;5042240;28;45154;-45
2022/02/15 04:29:15;;;;;;;;;3.00;1.00;;;;;9.20;58.45;100972.03;5041946;28;45212;-46
2022/02/15 04:31:40;;;;;;;;;3.75;0.75;;;;;9.18;58.35;100972.91;5042272;28;45411;-45
2022/02/15 04:34:06;;;;;;;;;2.00;1.75;;;;;9.16;58.36;100987.78;5042206;28;45379;-47
2022/02/15 04:36:31;;;;;;;;;2.50;1.25;;;;;9.16;58.40;100993.03;5040922;28;47526;-45
2022/02/15 04:38:56;;;;;;;;;3.00;2.00;;;;;9.11;58.41;100991.28;5041924;28;45306;-46
2022/02/15 04:41:22;;;;;;;;;2.00;0.25;;;;;9.08;58.47;100993.94;5042155;28;45285;-45
2022/02/15 04:43:47;;;;;;;;;3.75;1.75;;;;;9.05;58.39;100996.56;5041792;28;45243;-45
2022/02/15 04:46:12;;;;;;;;;2.50;1.00;;;;;9.05;58.15;100998.31;5041608;28;46155;-46
2022/02/15 04:48:38;;;;;;;;;6.00;1.00;;;;;9.02;58.25;100996.56;5041705;28;45236;-45
2022/02/15 04:51:03;;;;;;;;;2.00;2.00;;;;;8.99;58.15;100999.19;5040955;28;45334;-45
2022/02/15 04:53:28;;;;;;;;;1.75;1.00;;;;;8.99;58.15;101007.06;5041761;28;45476;-47
2022/02/15 04:55:54;;;;;;;;;2.00;2.00;;;;;8.99;58.25;101003.56;5041810;28;46138;-47
2022/02/15 04:58:20;;;;;;;;;0.25;0.25;;;;;8.98;58.07;101010.59;5041574;28;45260;-48
2022/02/15 05:00:47;;;;;;;;;1.50;1.00;;;;;8.97;58.19;101011.44;5041730;28;45315;-45
2022/02/15 05:03:12;;;;;;;;;5.75;2.00;;;;;8.94;58.17;101016.69;5041484;28;45434;-45
2022/02/15 05:05:38;;;;;;;;;2.75;2.00;;;;;8.92;58.14;101023.69;5041451;28;45415;-44
2022/02/15 05:08:03;;;;;;;;;1.00;1.00;;;;;8.87;58.17;101012.38;5040217;28;45809;-46
2022/02/15 05:10:29;;;;;;;;;2.00;2.00;;;;;8.85;58.39;101008.88;5041285;28;45315;-46
2022/02/15 05:12:54;;;;;;;;;1.00;1.00;;;;;8.86;58.37;101026.34;5041396;28;45226;-46
2022/02/15 05:15:20;;;;;;;;;3.00;2.25;;;;;8.84;58.22;101030.69;5040038;28;47505;-48
2022/02/15 05:17:46;;;;;;;;;2.50;2.50;;;;;8.81;58.22;101034.19;5041376;28;45200;-45
2022/02/15 05:20:14;;;;;;;;;3.00;3.00;;;;;8.78;58.33;101034.22;5041505;28;45531;-45
2022/02/15 05:22:39;;;;;;;;;1.00;1.00;;;;;8.76;58.42;101044.69;5041176;28;45318;-44
2022/02/15 05:25:06;;;;;;;;;3.00;2.75;;;;;8.74;58.23;101035.97;5040995;28;45306;-45
2022/02/15 05:27:31;;;;;;;;;2.75;2.75;;;;;8.72;58.16;101035.09;5039736;28;45341;-45
2022/02/15 05:29:56;;;;;;;;;3.50;3.50;;;;;8.71;58.24;101040.34;5053222;28;45266;-44
2022/02/15 05:32:22;;;;;;;;;3.00;1.75;;;;;8.69;58.22;101035.09;5039798;28;45324;-47
2022/02/15 05:34:47;;;;;;;;;3.75;2.75;;;;;8.68;58.17;101035.97;5041182;28;45331;-49
2022/02/15 05:37:12;;;;;;;;;5.00;2.00;;;;;8.65;58.49;101035.97;5041039;28;45433;-47
2022/02/15 05:39:39;;;;;;;;;2.50;2.50;;;;;8.62;58.33;101039.47;5041024;28;45761;-46
2022/02/15 05:42:05;;;;;;;;;1.25;1.00;;;;;8.59;58.26;101038.59;5041007;28;45464;-48
2022/02/15 05:44:31;;;;;;;;;3.25;2.00;;;;;8.57;58.38;101040.38;5040638;28;45465;-46
2022/02/15 05:46:56;;;;;;;;;2.00;2.00;;;;;8.57;58.31;101045.59;5019487;28;45789;-45
2022/02/15 05:49:22;;;;;;;;;3.50;2.75;;;;;8.54;58.27;101037.72;5040487;28;45288;-45
2022/02/15 05:51:47;;;;;;;;;3.00;2.00;;;;;8.54;58.19;101042.97;5040841;28;45560;-45
2022/02/15 05:54:12;;;;;;;;;5.00;4.00;;;;;8.51;58.04;101033.38;5040663;28;46233;-45
2022/02/15 05:56:38;;;;;;;;;4.00;2.25;;;;;8.50;58.28;101036.00;5040632;28;45327;-46
2022/02/15 05:59:03;;;;;;;;;8.50;2.00;;;;;8.48;58.25;101040.34;5040835;28;45459;-48
2022/02/15 06:01:28;;;;;;;;;1.50;1.50;;;;;8.47;58.26;101043.88;5040742;28;45536;-47
2022/02/15 06:04:12;;;;;;;;;4.50;2.25;;;;;8.45;58.31;101049.06;5040778;28;46301;-44
2022/02/15 06:06:41;;;;;;;;;2.25;2.25;;;;;8.41;58.23;101056.03;5040541;28;45373;-49
2022/02/15 06:09:07;;;;;;;;;2.75;2.00;;;;;8.38;58.29;101053.44;5040528;28;45182;-49
2022/02/15 06:11:33;;;;;;;;;3.50;3.50;;;;;8.39;58.07;101063.03;5040559;28;45349;-45
2022/02/15 06:13:59;;;;;;;;;5.00;2.75;;;;;8.38;58.11;101066.53;5040350;28;46049;-48
2022/02/15 06:16:25;;;;;;;;;3.00;3.00;;;;;8.37;58.27;101077.88;5040381;28;45243;-44
2022/02/15 06:18:55;;;;;;;;;8.75;3.75;;;;;8.35;58.49;101079.63;5040462;28;45277;-44
2022/02/15 06:21:20;;;;;;;;;5.00;4.50;;;;;8.22;58.27;101062.16;5039642;28;45249;-49
2022/02/15 06:23:46;;;;;;;;;5.00;2.75;;;;;8.27;58.51;101076.97;5040352;28;45234;-46
2022/02/15 06:26:11;;;;;;;;;4.00;2.00;;;;;8.27;58.24;101079.59;5040199;28;45322;-43
2022/02/15 06:28:37;;;;;;;;;4.50;3.00;;;;;8.26;58.40;101088.34;5036237;28;45320;-46
2022/02/15 06:31:02;;;;;;;;;4.00;2.25;;;;;8.24;58.14;101079.63;5040189;28;45219;-44
2022/02/15 06:33:27;;;;;;;;;3.75;2.00;;;;;8.25;58.15;101086.59;5036281;28;46416;-45
2022/02/15 06:35:53;;;;;;;;;2.50;2.00;;;;;8.22;58.17;101083.97;5040993;28;45361;-45
2022/02/15 06:38:18;;;;;;;;;5.00;3.25;;;;;8.19;58.50;101083.09;5034177;28;45706;-48
2022/02/15 06:40:43;;;;;;;;;5.25;3.00;;;;;8.17;58.46;101087.47;5043607;28;45454;-45
2022/02/15 06:43:10;;;;;;;;;4.25;1.75;;;;;8.17;58.47;101097.94;5034682;28;46014;-45
2022/02/15 06:45:35;;;;;;;;;4.00;4.00;;;;;8.12;58.38;101097.91;5041870;28;45437;-48
2022/02/15 06:48:01;;;;;;;;;5.00;2.00;;;;;8.06;58.50;101092.66;5032498;28;45272;-46
2022/02/15 06:50:26;;;;;;;;;4.00;3.75;;;;;8.03;58.48;101109.25;5039826;28;45487;-49
2022/02/15 06:52:52;;;;;;;;;3.25;3.00;;;;;8.00;58.52;101100.50;5039708;28;47175;-50
2022/02/15 06:55:17;;;;;;;;;9.25;3.25;;;;;7.95;58.59;101114.47;5039816;28;45461;-49
2022/02/15 06:57:43;;;;;;;;;3.00;2.00;;;;;7.92;58.29;101116.19;5019503;28;45367;-50
2022/02/15 07:00:10;;;;;;;;;4.50;2.00;;;;;7.90;58.49;101133.63;5039584;28;45387;-48
2022/02/15 07:02:36;;;;;;;;;5.00;4.00;;;;;7.87;58.52;101128.41;5039048;28;46186;-48
2022/02/15 07:05:02;;;;;;;;;3.75;3.25;;;;;7.84;58.44;101136.25;5035376;28;45440;-47
2022/02/15 07:07:28;;;;;;;;;3.00;3.00;;;;;7.81;58.37;101131.84;5034122;28;45158;-46
2022/02/15 07:09:53;;;;;;;;;2.50;2.50;;;;;7.79;58.68;101137.09;5039350;28;45307;-51
2022/02/15 07:12:20;;;;;;;;;4.50;2.50;;;;;7.77;58.52;101145.78;5039055;28;45363;-47
2022/02/15 07:14:46;;;;;;;;;2.00;2.00;;;;;7.75;58.71;101143.19;5039272;28;45205;-49
2022/02/15 07:17:11;;;;;;;;;2.75;2.00;;;;;7.71;58.46;101141.44;5049763;28;45415;-46
2022/02/15 07:19:36;;;;;;;;;3.75;2.25;;;;;7.69;58.51;101135.31;5041189;28;46270;-48
2022/02/15 07:22:03;;;;;;;;;5.00;3.50;;;;;7.68;58.38;101138.78;5039465;28;45302;-48
2022/02/15 07:24:29;;;;;;;;;4.00;2.50;;;;;7.66;58.44;101145.78;5039148;28;45310;-46
2022/02/15 07:26:54;;;;;;;;;5.00;3.00;;;;;7.64;58.55;101145.75;5046390;28;45536;-45
2022/02/15 07:29:20;;;;;;;;;6.75;4.00;;;;;7.62;58.59;101144.00;5042300;28;45546;-48
2022/02/15 07:31:47;;;;;;;;;5.25;3.00;;;;;7.59;58.47;101144.84;5038058;28;47161;-46
2022/02/15 07:34:12;;;;;;;;;4.25;1.50;;;;;7.54;58.29;101132.63;5040729;28;45283;-49
2022/02/15 07:36:38;;;;;;;;;3.00;3.00;;;;;7.55;58.61;101143.09;5042290;28;45445;-47
2022/02/15 07:39:03;;;;;;;;;3.00;2.00;;;;;7.51;58.77;101154.41;5042729;28;45239;-45
2022/02/15 07:41:30;;;;;;;;;3.00;2.75;;;;;7.51;58.58;101158.75;5043716;28;46019;-47
2022/02/15 07:43:55;;;;;;;;;3.00;2.75;;;;;7.51;58.67;101161.38;5042304;28;45309;-46
2022/02/15 07:46:21;;;;;;;;;2.50;2.00;;;;;7.46;58.63;101151.78;5051004;28;45384;-47
2022/02/15 07:48:46;;;;;;;;;4.50;3.00;;;;;7.45;58.80;101157.84;5042518;28;45480;-48
2022/02/15 07:51:11;;;;;;;;;3.75;3.00;;;;;7.48;58.81;101159.63;5042553;28;46097;-47
2022/02/15 07:53:37;;;;;;;;;8.25;3.00;;;;;7.46;58.61;101159.63;5043432;28;45434;-48
2022/02/15 07:56:02;;;;;;;;;8.25;4.75;;;;;7.44;58.56;101161.34;5042861;28;45458;-47
2022/02/15 07:58:27;;;;;;;;;2.25;2.25;;;;;7.44;58.60;101161.34;5042092;28;45272;-47
2022/02/15 08:00:53;;;;;;;;;6.00;4.00;;;;;7.39;58.91;101163.06;5042222;28;45311;-47
2022/02/15 08:03:19;;;;;;;;;6.25;5.00;;;;;7.41;58.88;101165.66;5043079;28;45343;-47
2022/02/15 08:05:44;;;;;;;;;7.25;5.00;;;;;7.40;58.93;101174.41;5042582;28;45391;-46
2022/02/15 08:08:10;;;;;;;;;3.00;3.00;;;;;7.41;58.73;101173.50;5042191;28;45450;-45
2022/02/15 08:10:35;;;;;;;;;5.00;3.00;;;;;7.40;58.98;101190.09;5042003;28;46166;-46
2022/02/15 08:13:03;;;;;;;;;5.00;3.50;;;;;7.37;58.92;101185.72;5044981;28;45372;-48
2022/02/15 08:15:33;;;;;;;;;8.25;4.00;;;;;7.39;58.82;101188.34;5045077;28;45304;-49
2022/02/15 08:18:01;;;;;;;;;3.00;2.00;;;;;7.38;58.77;101200.53;5044839;28;45404;-46
2022/02/15 08:20:27;;;;;;;;;4.00;3.00;;;;;7.39;59.25;101194.44;5042229;28;46287;-45
2022/02/15 08:22:53;;;;;;;;;5.75;4.00;;;;;7.41;58.90;101203.19;5043351;28;45694;-45
2022/02/15 08:25:19;;;;;;;;;5.00;4.00;;;;;7.40;59.08;101206.66;5042261;28;45213;-44
2022/02/15 08:27:45;;;;;;;;;4.00;3.50;;;;;7.41;58.79;101207.50;5043572;28;45255;-47
2022/02/15 08:30:13;;;;;;;;;5.75;4.25;;;;;7.43;58.85;101201.47;5041611;28;46232;-47
2022/02/15 08:32:38;;;;;;;;;5.00;2.25;;;;;7.48;58.89;101206.69;5037995;28;45366;-50
2022/02/15 08:35:05;;;;;;;;;2.00;2.00;;;;;7.51;58.89;101208.44;5034230;28;45319;-46
2022/02/15 08:37:32;;;;;;;;;6.00;2.00;;;;;7.55;59.19;101215.47;5040847;28;45545;-49
2022/02/15 08:39:59;;;;;;;;;4.50;3.00;;;;;7.56;59.00;101212.84;5041500;28;46481;-47
2022/02/15 08:42:25;;;;;;;;;2.50;2.50;;;;;7.59;59.06;101219.84;5041337;28;45228;-45
2022/02/15 08:44:53;;;;;;;;;5.25;3.50;;;;;7.61;59.16;101223.31;5040729;28;45236;-45
2022/02/15 08:47:20;;;;;;;;;3.25;3.25;;;;;7.65;58.78;101231.22;5041565;28;45304;-46
2022/02/15 08:49:47;;;;;;;;;5.25;3.75;;;;;7.69;59.01;101228.63;5041457;28;46181;-50
2022/02/15 08:52:13;;;;;;;;;7.50;5.00;;;;;7.75;58.95;101240.00;5036691;28;45371;-49
2022/02/15 08:54:39;;;;;;;;;6.75;5.25;;;;;7.80;58.86;101233.03;5040035;28;45242;-46
2022/02/15 08:57:05;;;;;;;;;5.00;3.50;;;;;7.85;58.97;101240.03;5041202;28;45719;-47
2022/02/15 08:59:31;;;;;;;;;7.25;5.75;;;;;7.89;58.96;101234.81;5039812;28;46168;-49
2022/02/15 09:01:56;;;;;;;;;11.50;5.00;;;;;7.93;58.95;101247.03;5042320;28;45335;-47
2022/02/15 09:04:21;;;;;;;;;6.00;4.25;;;;;7.98;58.93;101229.63;5041764;28;45301;-47
2022/02/15 09:06:47;;;;;;;;;2.00;2.00;;;;;8.04;58.98;101227.94;5041035;28;45588;-48
2022/02/15 09:09:15;;;;;;;;;4.75;2.50;;;;;8.07;59.05;101215.69;5041155;28;46243;-48
2022/02/15 09:11:41;;;;;;;;;4.00;4.00;;;;;8.14;59.31;101225.31;5041642;28;45248;-47
2022/02/15 09:14:06;;;;;;;;;5.75;4.00;;;;;8.23;58.98;101221.00;5040951;28;45454;-48
2022/02/15 09:16:32;;;;;;;;;8.50;3.25;;;;;8.28;59.03;101216.66;5040984;28;45244;-49
2022/02/15 09:18:58;;;;;;;;;4.50;2.50;;;;;8.35;58.85;101194.84;5041224;28;46046;-46
2022/02/15 09:21:24;;;;;;;;;4.00;4.00;;;;;8.36;59.15;101177.38;5041145;28;45249;-47
2022/02/15 09:23:49;;;;;;;;;4.75;3.00;;;;;8.44;58.91;101189.63;5041077;28;45228;-48
2022/02/15 09:26:15;;;;;;;;;7.50;5.25;;;;;8.52;59.01;101194.03;5040752;28;45498;-46
2022/02/15 09:28:40;;;;;;;;;3.00;2.75;;;;;8.58;58.96;101196.69;5040728;28;45295;-47
2022/02/15 09:31:06;;;;;;;;;4.00;2.75;;;;;8.64;59.27;101207.16;5040753;28;45304;-46
2022/02/15 09:33:32;;;;;;;;;5.00;3.25;;;;;8.75;58.75;101212.41;5042416;28;45472;-48
2022/02/15 09:35:58;;;;;;;;;5.00;2.00;;;;;8.84;58.98;101198.44;5040570;28;45322;-47
2022/02/15 09:38:23;;;;;;;;;4.00;3.00;;;;;8.91;58.89;101202.81;5040964;28;46368;-45
2022/02/15 09:40:49;;;;;;;;;1.00;1.00;;;;;8.98;58.82;101215.06;5041624;28;45439;-45
2022/02/15 09:43:15;;;;;;;;;4.25;4.00;;;;;9.04;58.79;101220.28;5041811;28;45334;-48
2022/02/15 09:45:44;;;;;;;;;2.25;2.25;;;;;9.10;58.73;101228.13;5039052;28;45545;-48
2022/02/15 09:48:11;;;;;;;;;4.00;3.00;;;;;9.15;58.86;101215.03;5041795;28;45427;-48
2022/02/15 09:50:37;;;;;;;;;3.00;2.75;;;;;9.24;58.75;101220.28;5039705;28;45381;-49
2022/02/15 09:53:03;;;;;;;;;4.00;4.00;;;;;9.34;58.57;101221.13;5041799;28;45320;-47
2022/02/15 09:55:28;;;;;;;;;6.75;4.00;;;;;9.39;58.52;101201.00;5040385;28;45439;-46
2022/02/15 09:57:54;;;;;;;;;4.50;4.00;;;;;9.49;58.53;101222.84;5039367;28;45855;-47
2022/02/15 10:00:21;;;;;;;;;3.00;1.75;;;;;9.56;58.61;101226.34;5040087;28;45418;-48
2022/02/15 10:02:49;;;;;;;;;3.00;3.00;;;;;9.64;58.61;101218.47;5040834;28;45161;-49
2022/02/15 10:05:17;;;;;;;;;5.75;4.00;;;;;9.68;58.62;101223.66;5039680;28;46640;-45
2022/02/15 10:07:59;;;;;;;;;8.25;3.50;;;;;9.78;58.22;101223.66;5040162;28;45321;-46
2022/02/15 10:10:29;;;;;;;;;4.75;3.00;;;;;9.84;58.33;101210.53;5040066;28;45500;-47
2022/02/15 10:12:59;;;;;;;;;8.00;4.75;;;;;9.91;58.58;101226.25;5042402;28;45411;-46
2022/02/15 10:15:36;;;;;;;;;5.50;4.00;;;;;10.01;58.29;101224.47;5040184;28;45498;-46
2022/02/15 10:18:13;;;;;;;;;4.75;3.00;;;;;10.13;58.31;101217.41;5042419;28;45465;-47
2022/02/15 10:20:44;;;;;;;;;5.50;3.75;;;;;10.20;58.47;101225.25;5040134;28;45417;-45
2022/02/15 10:23:16;;;;;;;;;2.25;2.25;;;;;10.29;58.35;101226.94;5039051;28;45430;-48
2022/02/15 10:25:41;;;;;;;;;4.75;2.00;;;;;10.37;58.35;101226.94;5040917;28;45240;-47
2022/02/15 10:28:18;;;;;;;;;3.25;3.25;;;;;10.47;58.48;101227.75;5039872;28;45945;-48
2022/02/15 10:30:44;;;;;;;;;7.50;3.50;;;;;10.54;58.19;101235.59;5040470;28;45483;-48
2022/02/15 10:33:09;;;;;;;;;3.50;3.50;;;;;10.62;58.54;101232.91;5040484;28;45291;-47
2022/02/15 10:35:35;;;;;;;;;5.00;4.00;;;;;10.68;58.25;101234.66;5039610;28;45239;-46
2022/02/15 10:38:01;;;;;;;;;4.00;3.25;;;;;10.79;58.35;101243.31;5040980;28;45232;-45
2022/02/15 10:40:27;;;;;;;;;5.00;4.00;;;;;10.83;58.44;101239.78;5040490;28;45484;-45
2022/02/15 10:42:53;;;;;;;;;4.25;3.75;;;;;10.92;58.22;101238.84;5040006;28;45277;-48
2022/02/15 10:45:18;;;;;;;;;2.50;2.25;;;;;10.99;58.41;101232.66;5040352;28;45388;-45
2022/02/15 10:47:45;;;;;;;;;3.00;3.00;;;;;11.01;58.21;101225.59;5039994;28;45379;-47
2022/02/15 10:50:15;;;;;;;;;7.75;4.50;;;;;11.08;58.21;101229.09;5039189;28;45327;-45
2022/02/15 10:52:41;;;;;;;;;7.25;3.00;;;;;11.13;58.15;101211.50;5039984;28;45388;-46
2022/02/15 10:55:08;;;;;;;;;4.25;4.25;;;;;11.16;58.13;101200.06;5040277;28;45461;-49
2022/02/15 10:57:36;;;;;;;;;5.75;3.25;;;;;11.21;58.24;101211.41;5040423;28;46687;-46
2022/02/15 11:00:09;;;;;;;;;4.00;3.75;;;;;11.30;58.15;101195.53;5039145;28;45407;-48
2022/02/15 11:02:37;;;;;;;;;4.75;4.25;;;;;11.37;58.20;101186.69;5035183;28;45346;-48
2022/02/15 11:05:06;;;;;;;;;8.00;5.25;;;;;11.47;57.91;101183.97;5037080;28;45507;-49
2022/02/15 11:07:34;;;;;;;;;7.75;6.00;;;;;11.54;57.92;101183.88;5038868;28;45547;-48
2022/02/15 11:10:07;;;;;;;;;7.75;7.00;;;;;11.67;57.77;101183.72;5038905;28;45333;-47
2022/02/15 11:12:54;;;;;;;;;7.00;5.50;;;;;11.74;57.85;101189.81;5040019;28;45382;-45
2022/02/15 11:15:22;;;;;;;;;6.50;5.00;;;;;11.82;57.75;101182.69;5039333;28;45298;-49
2022/02/15 11:17:50;;;;;;;;;7.25;6.50;;;;;11.93;57.64;101191.31;5037929;28;47230;-47
2022/02/15 11:20:18;;;;;;;;;4.00;3.75;;;;;12.06;57.57;101183.31;5042506;28;45325;-45
2022/02/15 11:23:02;;;;;;;;;8.00;5.00;;;;;12.15;57.68;101181.41;5039373;28;45362;-48
2022/02/15 11:25:37;;;;;;;;;6.00;4.50;;;;;12.25;57.54;101182.16;5041908;28;45468;-46
2022/02/15 11:28:16;;;;;;;;;6.25;5.25;;;;;12.38;57.55;101177.59;5040091;28;46663;-45
2022/02/15 11:31:07;;;;;;;;;5.00;4.00;;;;;12.53;57.39;101171.22;5052607;28;45180;-45